Time;durP1;ratioP1;P1;durP2;ratioP2;P2;SDS_P1;SDS_P2;PMS_P1;PMS_P2;Temp;Humidity;BMP_temperature;BMP_pressure;BME280_temperature;BME280_humidity;BME280_pressure;Samples;Min_cycle;Max_cycle;Signal;HPM_P1;HPM_P2
2023/05/19 00:00:56;;;;;;;10.93;5.03;;;10.10;71.00;;;;;;5094480;28;20044;-70
2023/05/19 00:03:22;;;;;;;10.07;4.63;;;10.10;71.00;;;;;;5093494;28;20040;-70
2023/05/19 00:05:49;;;;;;;8.73;3.47;;;10.10;71.10;;;;;;5093958;28;20044;-70
2023/05/19 00:08:19;;;;;;;8.55;3.63;;;10.00;71.10;;;;;;5128330;27;20044;-70
2023/05/19 00:10:45;;;;;;;8.07;3.40;;;10.10;71.20;;;;;;5128172;27;20039;-70
2023/05/19 00:13:11;;;;;;;7.70;3.35;;;10.00;71.00;;;;;;5118146;27;20063;-70
2023/05/19 00:15:37;;;;;;;8.48;3.20;;;10.10;71.40;;;;;;5090594;28;20094;-70
2023/05/19 00:18:03;;;;;;;8.55;3.70;;;10.10;70.90;;;;;;5092255;28;20036;-70
2023/05/19 00:20:29;;;;;;;8.52;3.20;;;10.10;70.90;;;;;;5077152;28;20082;-71
2023/05/19 00:22:55;;;;;;;7.75;3.30;;;10.10;70.90;;;;;;5127781;27;20465;-70
2023/05/19 00:25:20;;;;;;;7.93;2.95;;;10.10;70.90;;;;;;5128249;27;20048;-70
2023/05/19 00:27:46;;;;;;;10.68;3.55;;;10.10;70.70;;;;;;5107425;28;20044;-70
2023/05/19 00:30:12;;;;;;;6.45;2.95;;;10.10;70.70;;;;;;5107345;28;20044;-70
2023/05/19 00:32:38;;;;;;;10.82;4.07;;;10.10;70.60;;;;;;5112724;27;20044;-70
2023/05/19 00:35:04;;;;;;;7.10;3.20;;;10.10;70.60;;;;;;5127552;27;20051;-70
2023/05/19 00:37:30;;;;;;;7.10;3.83;;;10.10;70.50;;;;;;5127487;27;20040;-71
2023/05/19 00:39:56;;;;;;;10.77;4.28;;;10.10;70.40;;;;;;5121747;27;20102;-70
2023/05/19 00:42:21;;;;;;;12.10;4.13;;;10.10;70.40;;;;;;5107382;28;20397;-70
2023/05/19 00:44:47;;;;;;;8.13;3.60;;;10.10;70.30;;;;;;5043576;28;20039;-70
2023/05/19 00:47:13;;;;;;;7.75;3.40;;;10.10;70.30;;;;;;5092732;28;20040;-70
2023/05/19 00:49:39;;;;;;;9.18;4.13;;;10.10;70.30;;;;;;5112968;27;20048;-69
2023/05/19 00:52:06;;;;;;;7.70;3.67;;;10.10;70.60;;;;;;5072987;28;20044;-69
2023/05/19 00:54:33;;;;;;;8.48;3.60;;;10.10;70.50;;;;;;5077395;28;20045;-70
2023/05/19 00:56:59;;;;;;;8.30;3.75;;;10.10;70.50;;;;;;5113620;28;20104;-70
2023/05/19 00:59:25;;;;;;;9.40;4.30;;;10.10;70.50;;;;;;5109917;28;20032;-72
2023/05/19 01:01:51;;;;;;;7.75;3.28;;;10.10;70.60;;;;;;5119918;27;20075;-71
2023/05/19 01:04:18;;;;;;;6.97;3.65;;;10.10;70.60;;;;;;5127254;27;20040;-71
2023/05/19 01:06:48;;;;;;;7.55;3.58;;;10.10;70.60;;;;;;5127416;27;20036;-71
2023/05/19 01:09:15;;;;;;;6.60;4.20;;;10.10;70.60;;;;;;5123215;27;20095;-71
2023/05/19 01:11:41;;;;;;;9.18;4.20;;;10.10;70.70;;;;;;5106859;27;20475;-71
2023/05/19 01:14:07;;;;;;;8.30;3.80;;;10.00;70.60;;;;;;5117814;27;20047;-71
2023/05/19 01:16:41;;;;;;;9.85;4.55;;;10.00;70.60;;;;;;5100527;28;20053;-71
2023/05/19 01:19:19;;;;;;;8.18;3.83;;;10.00;70.80;;;;;;5075812;28;20079;-70
2023/05/19 01:21:51;;;;;;;10.25;5.05;;;10.00;70.80;;;;;;5126853;27;20457;-71
2023/05/19 01:24:46;;;;;;;8.88;4.25;;;10.00;70.90;;;;;;5126846;27;20043;-71
2023/05/19 01:27:49;;;;;;;13.73;4.35;;;10.00;71.20;;;;;;5102797;28;20036;-71
2023/05/19 01:30:42;;;;;;;11.30;4.65;;;9.90;71.30;;;;;;5092772;28;20426;-70
2023/05/19 01:33:14;;;;;;;10.05;3.80;;;9.90;71.30;;;;;;5089278;28;20044;-71
2023/05/19 01:35:42;;;;;;;12.23;4.90;;;9.90;71.30;;;;;;5093422;28;20077;-70
2023/05/19 01:38:10;;;;;;;10.48;4.32;;;9.90;71.40;;;;;;5126580;27;20044;-71
2023/05/19 01:40:37;;;;;;;9.23;3.83;;;9.90;71.60;;;;;;5125867;27;20455;-71
2023/05/19 01:43:05;;;;;;;14.55;4.97;;;9.80;71.50;;;;;;5075176;28;20036;-70
2023/05/19 01:45:32;;;;;;;6.03;3.92;;;9.80;71.30;;;;;;5075577;28;20086;-70
2023/05/19 01:48:01;;;;;;;12.35;3.92;;;9.80;71.20;;;;;;5126636;27;20496;-71
2023/05/19 01:50:27;;;;;;;8.77;3.63;;;9.80;71.00;;;;;;5125766;27;20119;-70
2023/05/19 01:52:54;;;;;;;6.18;3.63;;;9.80;70.90;;;;;;5122034;27;20057;-71
2023/05/19 01:55:21;;;;;;;8.95;4.07;;;9.80;70.80;;;;;;5093082;28;20105;-72
2023/05/19 01:58:05;;;;;;;8.98;4.22;;;9.80;70.70;;;;;;5078729;28;20058;-71
2023/05/19 02:00:39;;;;;;;8.07;4.30;;;9.80;70.60;;;;;;5091676;28;20505;-71
2023/05/19 02:03:28;;;;;;;9.35;4.00;;;9.70;70.40;;;;;;5125935;27;20036;-70
2023/05/19 02:06:25;;;;;;;8.55;4.25;;;9.80;70.50;;;;;;5125096;27;20096;-71
2023/05/19 02:09:17;;;;;;;8.32;3.83;;;9.70;70.20;;;;;;5125930;27;20048;-71
2023/05/19 02:11:55;;;;;;;7.18;3.25;;;9.70;70.20;;;;;;5091252;28;20062;-71
2023/05/19 02:14:28;;;;;;;7.80;3.60;;;9.70;70.00;;;;;;5118870;27;20448;-72
2023/05/19 02:16:57;;;;;;;8.23;3.78;;;9.70;69.90;;;;;;5105737;28;20450;-72
2023/05/19 02:19:24;;;;;;;9.85;3.72;;;9.70;69.80;;;;;;5105187;28;20037;-71
2023/05/19 02:21:51;;;;;;;6.55;3.70;;;9.70;69.80;;;;;;5105200;28;20044;-72
2023/05/19 02:24:18;;;;;;;10.00;4.00;;;9.60;69.60;;;;;;5108518;28;20448;-71
2023/05/19 02:26:45;;;;;;;6.95;4.40;;;9.60;69.60;;;;;;5091429;28;20036;-69
2023/05/19 02:29:10;;;;;;;8.43;3.85;;;9.60;69.60;;;;;;5093170;28;20051;-71
2023/05/19 02:31:36;;;;;;;7.57;4.00;;;9.60;69.60;;;;;;5125617;27;20040;-71
2023/05/19 02:34:02;;;;;;;7.35;3.65;;;9.60;69.60;;;;;;5125566;27;20122;-71
2023/05/19 02:36:35;;;;;;;7.03;4.15;;;9.50;69.60;;;;;;5117606;28;20052;-71
2023/05/19 02:39:02;;;;;;;7.60;3.88;;;9.50;69.70;;;;;;5104943;28;20059;-72
2023/05/19 02:41:29;;;;;;;9.43;4.38;;;9.20;69.80;;;;;;5075060;28;20042;-71
2023/05/19 02:43:54;;;;;;;8.05;4.07;;;9.50;70.20;;;;;;5112019;28;20383;-71
2023/05/19 02:46:20;;;;;;;9.73;4.22;;;9.50;70.20;;;;;;5098065;28;20040;-71
2023/05/19 02:48:46;;;;;;;7.35;4.47;;;9.40;70.30;;;;;;5074700;28;20043;-71
2023/05/19 02:51:11;;;;;;;7.60;3.78;;;9.40;70.40;;;;;;5057595;28;20112;-69
2023/05/19 02:53:37;;;;;;;12.82;4.78;;;9.40;70.50;;;;;;5125731;28;20050;-70
2023/05/19 02:56:03;;;;;;;6.82;4.28;;;9.40;70.60;;;;;;5119207;28;20036;-71
2023/05/19 02:58:29;;;;;;;10.52;4.82;;;9.40;70.60;;;;;;5108494;28;20052;-70
2023/05/19 03:00:55;;;;;;;11.02;4.43;;;9.30;70.60;;;;;;5125382;28;20502;-69
2023/05/19 03:03:21;;;;;;;10.07;4.07;;;9.40;70.50;;;;;;5106900;28;20035;-69
2023/05/19 03:05:47;;;;;;;10.52;4.90;;;9.30;70.40;;;;;;5099437;28;20074;-69
2023/05/19 03:08:12;;;;;;;11.32;4.55;;;9.30;70.20;;;;;;5091507;28;20047;-69
2023/05/19 03:10:38;;;;;;;8.77;4.60;;;9.30;70.10;;;;;;5091189;28;20407;-70
2023/05/19 03:13:04;;;;;;;8.57;4.93;;;9.30;70.10;;;;;;5074353;28;20089;-70
2023/05/19 03:15:31;;;;;;;11.65;4.80;;;9.20;69.90;;;;;;5093442;28;20044;-69
2023/05/19 03:17:57;;;;;;;7.90;4.03;;;9.20;69.90;;;;;;5103754;28;20044;-69
2023/05/19 03:20:23;;;;;;;12.10;4.80;;;9.20;69.90;;;;;;5108578;28;20418;-69
2023/05/19 03:22:49;;;;;;;7.35;4.00;;;9.20;69.90;;;;;;5070620;28;20040;-70
2023/05/19 03:25:15;;;;;;;9.20;4.35;;;9.20;69.80;;;;;;5070842;28;20542;-70
2023/05/19 03:27:41;;;;;;;8.25;4.40;;;9.20;69.80;;;;;;5070840;28;20121;-69
2023/05/19 03:30:08;;;;;;;9.43;4.40;;;9.10;69.70;;;;;;5099765;28;20442;-69
2023/05/19 03:32:36;;;;;;;9.32;3.92;;;9.10;69.70;;;;;;5115937;28;20041;-69
2023/05/19 03:35:04;;;;;;;8.85;4.32;;;9.10;69.70;;;;;;5087482;28;20074;-69
2023/05/19 03:37:29;;;;;;;11.52;4.55;;;9.00;69.70;;;;;;5080480;28;20048;-70
2023/05/19 03:39:56;;;;;;;9.90;4.10;;;9.00;69.70;;;;;;5128967;27;20044;-69
2023/05/19 03:42:22;;;;;;;7.72;3.95;;;9.00;69.70;;;;;;5111839;28;20040;-70
2023/05/19 03:44:47;;;;;;;7.53;4.30;;;9.00;69.70;;;;;;5130748;27;20043;-71
2023/05/19 03:47:13;;;;;;;10.75;4.80;;;9.00;69.70;;;;;;5114997;28;20098;-69
2023/05/19 03:49:39;;;;;;;9.70;4.85;;;8.90;69.50;;;;;;5113224;28;20092;-69
2023/05/19 03:52:05;;;;;;;8.80;4.65;;;8.90;69.60;;;;;;5079596;28;20043;-69
2023/05/19 03:54:31;;;;;;;5.65;3.90;;;8.90;69.60;;;;;;5077407;28;20445;-70
2023/05/19 03:56:56;;;;;;;6.90;3.78;;;8.90;69.60;;;;;;5128569;27;20077;-70
2023/05/19 03:59:23;;;;;;;7.20;4.15;;;8.90;69.60;;;;;;5128446;27;20380;-69
2023/05/19 04:01:49;;;;;;;8.48;4.38;;;8.80;69.70;;;;;;5077084;28;20123;-70
2023/05/19 04:04:15;;;;;;;10.40;4.00;;;8.80;69.70;;;;;;5092846;28;20435;-69
2023/05/19 04:06:40;;;;;;;6.93;3.90;;;8.80;69.80;;;;;;5094765;28;20047;-69
2023/05/19 04:09:14;;;;;;;8.43;3.97;;;8.80;69.90;;;;;;5128749;27;20434;-69
2023/05/19 04:11:40;;;;;;;6.82;3.85;;;8.80;70.00;;;;;;5128497;27;20056;-70
2023/05/19 04:14:07;;;;;;;7.90;4.22;;;8.70;69.90;;;;;;5128286;27;20487;-69
2023/05/19 04:16:33;;;;;;;7.85;5.13;;;8.70;70.00;;;;;;5128059;27;20412;-70
2023/05/19 04:18:58;;;;;;;5.82;3.95;;;8.70;70.10;;;;;;5128090;27;20137;-71
2023/05/19 04:21:24;;;;;;;8.05;4.50;;;8.70;70.20;;;;;;5120049;27;20265;-70
2023/05/19 04:23:50;;;;;;;10.32;4.35;;;8.70;70.30;;;;;;5098828;28;20040;-70
2023/05/19 04:26:18;;;;;;;7.55;4.07;;;8.70;70.30;;;;;;5077162;28;20539;-69
2023/05/19 04:28:43;;;;;;;5.70;4.28;;;8.70;70.40;;;;;;5128259;27;20391;-70
2023/05/19 04:31:13;;;;;;;9.13;4.15;;;8.70;70.60;;;;;;5114154;27;20044;-70
2023/05/19 04:33:39;;;;;;;5.82;3.90;;;8.70;70.70;;;;;;5110108;28;20043;-70
2023/05/19 04:36:10;;;;;;;6.88;3.97;;;8.60;70.70;;;;;;5081427;28;20052;-69
2023/05/19 04:38:38;;;;;;;7.18;4.00;;;8.60;70.90;;;;;;5127704;27;20052;-69
2023/05/19 04:41:08;;;;;;;8.45;4.38;;;8.60;70.90;;;;;;5119844;27;20491;-69
2023/05/19 04:43:34;;;;;;;7.07;4.13;;;8.60;71.10;;;;;;5127712;27;20424;-69
2023/05/19 04:46:00;;;;;;;6.70;3.83;;;8.60;71.20;;;;;;5127626;27;20131;-69
2023/05/19 04:48:29;;;;;;;7.53;3.88;;;8.60;71.30;;;;;;5127146;27;20498;-69
2023/05/19 04:50:55;;;;;;;7.07;3.78;;;8.60;71.40;;;;;;5092944;28;20071;-70
2023/05/19 04:53:21;;;;;;;6.28;3.53;;;8.60;71.50;;;;;;5093396;28;20083;-70
2023/05/19 04:55:47;;;;;;;7.13;3.75;;;8.70;71.60;;;;;;5076171;28;20625;-70
2023/05/19 04:58:12;;;;;;;10.25;4.72;;;8.70;71.80;;;;;;5127364;27;20040;-69
2023/05/19 05:00:38;;;;;;;9.07;5.65;;;8.70;72.20;;;;;;5123455;27;20047;-69
2023/05/19 05:03:05;;;;;;;11.27;6.38;;;8.70;72.70;;;;;;5093241;28;20115;-69
2023/05/19 05:05:31;;;;;;;11.90;7.68;;;8.70;73.70;;;;;;5110701;27;20049;-70
2023/05/19 05:07:57;;;;;;;11.15;7.47;;;8.80;75.20;;;;;;5087655;28;20100;-70
2023/05/19 05:10:23;;;;;;;18.75;9.10;;;9.00;76.70;;;;;;5127112;27;20044;-69
2023/05/19 05:12:49;;;;;;;14.00;8.30;;;9.30;77.80;;;;;;5126991;27;20077;-69
2023/05/19 05:15:15;;;;;;;14.07;7.90;;;9.60;78.10;;;;;;5120154;27;20028;-69
2023/05/19 05:17:42;;;;;;;16.70;8.15;;;9.90;78.50;;;;;;5072502;28;20045;-70
2023/05/19 05:20:08;;;;;;;15.35;7.35;;;10.20;78.60;;;;;;5078839;28;20491;-70
2023/05/19 05:22:34;;;;;;;13.10;7.90;;;10.60;78.30;;;;;;5126793;27;20075;-70
2023/05/19 05:25:01;;;;;;;12.43;7.03;;;10.90;77.90;;;;;;5126847;27;20119;-69
2023/05/19 05:27:27;;;;;;;13.48;6.97;;;11.20;77.30;;;;;;5075613;28;20040;-70
2023/05/19 05:29:53;;;;;;;12.75;6.97;;;11.50;76.60;;;;;;5120328;27;20047;-70
2023/05/19 05:32:19;;;;;;;15.90;7.70;;;11.80;75.90;;;;;;5106002;28;20076;-69
2023/05/19 05:34:45;;;;;;;12.50;6.68;;;12.00;75.20;;;;;;5106193;28;20076;-69
2023/05/19 05:37:10;;;;;;;10.32;5.80;;;12.30;74.60;;;;;;5105870;28;20131;-70
2023/05/19 05:39:36;;;;;;;12.32;6.20;;;12.60;74.30;;;;;;5095409;28;20063;-70
2023/05/19 05:42:02;;;;;;;17.38;7.03;;;12.90;73.80;;;;;;5126204;27;20036;-70
2023/05/19 05:44:27;;;;;;;10.05;5.75;;;13.20;73.20;;;;;;5126506;27;20151;-71
2023/05/19 05:46:53;;;;;;;13.23;5.40;;;13.60;72.20;;;;;;5118136;27;20040;-70
2023/05/19 05:49:20;;;;;;;13.68;5.93;;;13.90;70.80;;;;;;5105961;28;20106;-69
2023/05/19 05:51:46;;;;;;;8.02;4.75;;;14.20;70.10;;;;;;5088761;28;20048;-71
2023/05/19 05:54:12;;;;;;;12.07;5.88;;;14.50;69.00;;;;;;5106050;28;20040;-70
2023/05/19 05:56:38;;;;;;;11.93;5.43;;;14.70;67.50;;;;;;5105428;28;20094;-70
2023/05/19 05:59:04;;;;;;;10.13;4.43;;;14.80;67.30;;;;;;5105604;28;20530;-70
2023/05/19 06:01:30;;;;;;;12.52;5.85;;;15.00;65.90;;;;;;5117967;27;20041;-71
2023/05/19 06:03:56;;;;;;;10.98;5.88;;;15.10;65.20;;;;;;5086526;28;20097;-70
2023/05/19 06:06:21;;;;;;;8.88;4.75;;;15.20;65.20;;;;;;5091974;28;20110;-70
2023/05/19 06:08:47;;;;;;;8.85;4.47;;;15.30;65.10;;;;;;5125882;27;20044;-70
2023/05/19 06:11:13;;;;;;;9.50;4.57;;;15.60;63.70;;;;;;5125874;27;20032;-70
2023/05/19 06:13:41;;;;;;;9.48;5.00;;;15.80;62.70;;;;;;5126028;27;20105;-71
2023/05/19 06:16:08;;;;;;;11.18;4.65;;;16.00;61.90;;;;;;5091767;28;20451;-70
2023/05/19 06:18:33;;;;;;;11.27;4.85;;;16.20;60.80;;;;;;5125999;27;20062;-70
2023/05/19 06:21:00;;;;;;;10.57;5.18;;;16.30;59.90;;;;;;5115992;27;20480;-70
2023/05/19 06:23:27;;;;;;;8.27;4.10;;;16.50;59.60;;;;;;5105110;28;20056;-71
2023/05/19 06:25:53;;;;;;;8.32;4.00;;;16.50;58.50;;;;;;5115193;27;20483;-71
2023/05/19 06:28:19;;;;;;;9.55;4.05;;;16.60;58.20;;;;;;5092207;28;20115;-70
2023/05/19 06:30:45;;;;;;;11.23;4.35;;;16.70;57.80;;;;;;5125356;27;21584;-71
2023/05/19 06:33:11;;;;;;;9.35;4.00;;;16.80;57.70;;;;;;5076973;28;20118;-71
2023/05/19 06:35:36;;;;;;;7.90;4.13;;;16.80;56.60;;;;;;5125288;27;20061;-70
2023/05/19 06:38:02;;;;;;;9.82;4.10;;;16.80;56.60;;;;;;5093429;28;20054;-71
2023/05/19 06:40:28;;;;;;;8.65;4.55;;;16.80;55.50;;;;;;5107817;28;20098;-71
2023/05/19 06:42:53;;;;;;;9.10;3.70;;;16.70;55.10;;;;;;5095535;28;20522;-70
2023/05/19 06:45:21;;;;;;;6.57;3.53;;;16.60;55.20;;;;;;5091682;28;20048;-71
2023/05/19 06:47:47;;;;;;;10.18;3.65;;;16.50;54.00;;;;;;5092207;28;20422;-70
2023/05/19 06:50:13;;;;;;;8.82;3.63;;;16.30;54.90;;;;;;5106047;28;20090;-70
2023/05/19 06:52:39;;;;;;;8.07;3.10;;;16.40;56.30;;;;;;5060255;28;20097;-70
2023/05/19 06:55:05;;;;;;;8.45;4.03;;;16.60;55.60;;;;;;5091426;28;20044;-70
2023/05/19 06:57:31;;;;;;;7.90;3.83;;;16.60;54.10;;;;;;5091418;28;20097;-71
2023/05/19 06:59:57;;;;;;;11.90;3.55;;;16.60;54.40;;;;;;5118044;28;20119;-70
2023/05/19 07:02:22;;;;;;;8.45;3.60;;;16.50;55.40;;;;;;5113692;28;20036;-70
2023/05/19 07:04:50;;;;;;;8.57;3.72;;;16.60;55.20;;;;;;5071166;28;20487;-70
2023/05/19 07:07:15;;;;;;;10.15;3.97;;;16.60;55.10;;;;;;5090096;28;20119;-71
2023/05/19 07:09:41;;;;;;;6.07;2.88;;;16.80;55.10;;;;;;5074697;28;20189;-70
2023/05/19 07:12:07;;;;;;;10.95;3.75;;;16.90;54.20;;;;;;5092371;28;20048;-70
2023/05/19 07:14:32;;;;;;;7.35;3.50;;;17.00;54.10;;;;;;5078720;28;20048;-71
2023/05/19 07:16:58;;;;;;;8.60;3.60;;;17.10;54.20;;;;;;5095461;28;20407;-71
2023/05/19 07:19:24;;;;;;;6.97;3.35;;;17.30;53.50;;;;;;5095292;28;20066;-71
2023/05/19 07:21:49;;;;;;;10.20;3.20;;;17.40;53.40;;;;;;5129637;27;20105;-71
2023/05/19 07:24:15;;;;;;;7.28;3.03;;;17.50;53.10;;;;;;5124614;27;20399;-71
2023/05/19 07:26:41;;;;;;;6.82;2.83;;;17.70;52.20;;;;;;5115286;27;20036;-71
2023/05/19 07:29:07;;;;;;;6.40;2.90;;;17.80;50.70;;;;;;5108872;28;20155;-71
2023/05/19 07:31:33;;;;;;;8.25;2.60;;;17.90;50.20;;;;;;5115288;27;20090;-70
2023/05/19 07:33:59;;;;;;;9.35;3.17;;;17.90;49.20;;;;;;5103510;28;20062;-72
2023/05/19 07:36:26;;;;;;;10.30;3.00;;;17.90;48.10;;;;;;5127919;27;20127;-71
2023/05/19 07:38:51;;;;;;;9.20;3.03;;;17.90;46.50;;;;;;5080855;28;20043;-71
2023/05/19 07:41:17;;;;;;;8.95;2.70;;;17.70;46.50;;;;;;5077756;28;20032;-71
2023/05/19 07:43:43;;;;;;;5.88;2.90;;;17.50;46.10;;;;;;5093472;28;20036;-70
2023/05/19 07:46:08;;;;;;;9.88;2.50;;;17.40;46.20;;;;;;5121243;27;20387;-71
2023/05/19 07:48:34;;;;;;;7.03;2.90;;;17.30;46.30;;;;;;5077920;28;20078;-71
2023/05/19 07:51:01;;;;;;;7.63;2.35;;;17.10;47.50;;;;;;5108179;28;20047;-71
2023/05/19 07:53:26;;;;;;;7.70;2.78;;;17.10;47.60;;;;;;5094074;28;20043;-70
2023/05/19 07:55:52;;;;;;;8.85;2.78;;;17.10;47.60;;;;;;5128401;27;20491;-70
2023/05/19 07:58:18;;;;;;;9.73;2.95;;;17.20;47.30;;;;;;5094910;28;20032;-71
2023/05/19 08:00:44;;;;;;;10.15;3.00;;;17.20;46.50;;;;;;5128849;27;20036;-70
2023/05/19 08:03:10;;;;;;;6.40;2.70;;;17.20;46.50;;;;;;5128601;27;20133;-71
2023/05/19 08:05:36;;;;;;;5.45;2.60;;;17.10;46.10;;;;;;5127119;27;20059;-71
2023/05/19 08:08:03;;;;;;;10.10;3.00;;;17.10;45.80;;;;;;5127708;27;20051;-71
2023/05/19 08:10:28;;;;;;;7.68;2.58;;;17.00;45.80;;;;;;5127849;27;20036;-71
2023/05/19 08:12:54;;;;;;;9.35;3.03;;;17.00;45.90;;;;;;5127912;27;20505;-70
2023/05/19 08:15:20;;;;;;;7.60;2.75;;;16.90;45.90;;;;;;5127435;27;20562;-70
2023/05/19 08:17:46;;;;;;;9.75;2.78;;;16.90;46.90;;;;;;5127747;27;20036;-70
2023/05/19 08:20:12;;;;;;;6.82;2.35;;;17.00;46.60;;;;;;5128329;27;20422;-70
2023/05/19 08:22:38;;;;;;;8.68;2.75;;;17.00;45.70;;;;;;5128166;27;20483;-70
2023/05/19 08:25:05;;;;;;;6.50;2.85;;;17.00;45.10;;;;;;5093491;28;20097;-70
2023/05/19 08:27:31;;;;;;;6.65;2.40;;;17.10;45.70;;;;;;5094336;28;20117;-70
2023/05/19 08:29:57;;;;;;;13.93;4.03;;;17.10;45.40;;;;;;5128171;27;20044;-70
2023/05/19 08:32:23;;;;;;;6.45;2.67;;;17.10;45.70;;;;;;5077359;28;20044;-70
2023/05/19 08:34:48;;;;;;;5.88;2.30;;;17.20;46.90;;;;;;5077036;28;20499;-69
2023/05/19 08:37:14;;;;;;;7.93;2.60;;;17.40;47.20;;;;;;5127920;27;20056;-70
2023/05/19 08:39:40;;;;;;;8.30;2.85;;;17.50;45.60;;;;;;5111027;28;20506;-70
2023/05/19 08:42:10;;;;;;;7.43;2.65;;;17.70;45.50;;;;;;5127986;27;20043;-70
2023/05/19 08:44:38;;;;;;;7.97;2.78;;;17.90;44.90;;;;;;5076801;28;20048;-71
2023/05/19 08:47:05;;;;;;;6.93;2.72;;;18.00;43.60;;;;;;5127793;27;20102;-70
2023/05/19 08:49:34;;;;;;;7.68;2.60;;;18.10;42.90;;;;;;5127559;27;20063;-70
2023/05/19 08:52:23;;;;;;;8.40;2.92;;;18.10;41.70;;;;;;5093454;28;20043;-70
2023/05/19 08:55:01;;;;;;;7.05;2.47;;;18.20;43.50;;;;;;5127566;27;20043;-71
2023/05/19 08:57:28;;;;;;;8.18;2.30;;;18.20;41.90;;;;;;5127811;27;20430;-70
2023/05/19 08:59:54;;;;;;;6.93;2.83;;;18.20;41.90;;;;;;5127637;27;20072;-65
2023/05/19 09:02:21;;;;;;;6.75;2.70;;;18.20;41.30;;;;;;5127449;27;20558;-65
2023/05/19 09:04:47;;;;;;;13.15;3.33;;;18.20;42.40;;;;;;5076593;28;20090;-65
2023/05/19 09:07:17;;;;;;;7.43;2.45;;;18.30;42.50;;;;;;5127699;27;20226;-66
2023/05/19 09:09:43;;;;;;;4.32;1.98;;;18.40;41.50;;;;;;5127584;27;20044;-65
2023/05/19 09:12:13;;;;;;;6.38;2.85;;;18.50;41.50;;;;;;5127292;27;20043;-66
2023/05/19 09:14:39;;;;;;;6.53;2.58;;;18.50;40.90;;;;;;5127354;27;20097;-65
2023/05/19 09:17:05;;;;;;;7.43;2.42;;;18.50;40.10;;;;;;5127305;27;20047;-65
2023/05/19 09:19:31;;;;;;;7.03;3.00;;;18.50;41.00;;;;;;5127160;27;20032;-66
2023/05/19 09:22:04;;;;;;;7.03;2.63;;;18.60;41.00;;;;;;5127088;27;20128;-66
2023/05/19 09:24:30;;;;;;;8.98;2.83;;;18.60;40.50;;;;;;5127357;27;20047;-66
2023/05/19 09:26:56;;;;;;;6.47;2.42;;;18.60;39.80;;;;;;5075938;28;20105;-66
2023/05/19 09:29:22;;;;;;;7.00;2.55;;;18.70;40.70;;;;;;5094278;28;20036;-65
2023/05/19 09:31:49;;;;;;;6.05;2.28;;;18.70;40.50;;;;;;5126913;27;20043;-65
2023/05/19 09:34:15;;;;;;;5.15;2.15;;;18.80;40.50;;;;;;5076110;28;20047;-70
2023/05/19 09:36:41;;;;;;;7.32;2.28;;;18.90;40.40;;;;;;5125792;27;20514;-70
2023/05/19 09:39:15;;;;;;;5.55;2.13;;;19.00;41.10;;;;;;5092947;28;20044;-71
2023/05/19 09:41:41;;;;;;;6.95;2.28;;;19.20;40.30;;;;;;5126883;27;20040;-66
2023/05/19 09:44:11;;;;;;;7.45;2.58;;;19.30;39.90;;;;;;5126622;27;20036;-70
2023/05/19 09:46:37;;;;;;;5.90;2.53;;;19.30;38.40;;;;;;5075508;28;20036;-66
2023/05/19 09:49:09;;;;;;;7.80;2.78;;;19.30;38.90;;;;;;5075579;28;20119;-66
2023/05/19 09:51:40;;;;;;;5.72;2.50;;;19.40;38.10;;;;;;5092628;28;20456;-71
2023/05/19 09:54:08;;;;;;;7.40;2.78;;;19.40;37.50;;;;;;5126645;27;20044;-66
2023/05/19 09:56:34;;;;;;;7.68;2.45;;;19.40;37.70;;;;;;5109466;27;20044;-71
2023/05/19 09:59:02;;;;;;;6.15;2.45;;;19.50;38.30;;;;;;5126418;27;20083;-71
2023/05/19 10:01:32;;;;;;;8.57;2.83;;;19.60;38.10;;;;;;5126645;27;20043;-71
2023/05/19 10:03:59;;;;;;;10.02;2.75;;;19.70;37.20;;;;;;5126410;27;20071;-71
2023/05/19 10:06:25;;;;;;;6.28;2.70;;;19.70;36.60;;;;;;5126332;27;20503;-66
2023/05/19 10:08:52;;;;;;;8.00;2.47;;;19.60;37.10;;;;;;5126497;27;20052;-66
2023/05/19 10:11:18;;;;;;;6.35;1.92;;;19.70;36.80;;;;;;5126201;27;20040;-70
2023/05/19 10:13:45;;;;;;;5.47;2.10;;;19.80;36.70;;;;;;5093215;28;20055;-69
2023/05/19 10:16:15;;;;;;;5.72;2.33;;;19.70;35.90;;;;;;5126208;27;20144;-71
2023/05/19 10:18:41;;;;;;;8.13;2.40;;;19.70;36.80;;;;;;5126381;27;20055;-71
2023/05/19 10:21:08;;;;;;;5.10;2.15;;;19.80;37.20;;;;;;5125924;27;20391;-71
2023/05/19 10:23:34;;;;;;;6.22;1.92;;;19.80;36.70;;;;;;5075353;28;20044;-66
2023/05/19 10:26:03;;;;;;;8.23;2.90;;;19.90;37.10;;;;;;5074999;28;20047;-66
2023/05/19 10:28:39;;;;;;;4.90;2.22;;;20.00;36.80;;;;;;5091812;28;20132;-65
2023/05/19 10:31:08;;;;;;;4.75;1.90;;;20.10;37.20;;;;;;5126180;27;20043;-65
2023/05/19 10:34:03;;;;;;;4.68;2.03;;;20.20;36.50;;;;;;5125840;27;20073;-65
2023/05/19 10:36:46;;;;;;;8.75;2.58;;;20.40;36.00;;;;;;5125577;27;20056;-70
2023/05/19 10:39:27;;;;;;;6.30;2.38;;;20.50;35.30;;;;;;5093042;28;20044;-65
2023/05/19 10:42:11;;;;;;;7.35;2.40;;;20.50;35.20;;;;;;5125624;27;20096;-65
2023/05/19 10:44:45;;;;;;;5.32;1.95;;;20.50;35.10;;;;;;5125620;28;20039;-70
2023/05/19 10:47:11;;;;;;;6.30;2.20;;;20.50;35.20;;;;;;5091399;28;20652;-70
2023/05/19 10:49:38;;;;;;;5.32;2.10;;;20.50;35.60;;;;;;5091664;28;20123;-70
2023/05/19 10:52:18;;;;;;;3.97;1.85;;;20.60;35.50;;;;;;5125463;28;20048;-69
2023/05/19 10:54:47;;;;;;;5.28;1.98;;;20.70;35.30;;;;;;5092777;28;20040;-71
2023/05/19 10:57:16;;;;;;;4.97;2.10;;;20.90;34.10;;;;;;5075068;28;20093;-70
2023/05/19 10:59:46;;;;;;;6.53;2.50;;;20.90;34.30;;;;;;5125633;28;20036;-70
2023/05/19 11:02:43;;;;;;;5.88;2.00;;;21.00;34.90;;;;;;5125543;28;20035;-70
2023/05/19 11:05:19;;;;;;;5.90;1.85;;;21.10;34.20;;;;;;5069059;28;20399;-71
2023/05/19 11:07:55;;;;;;;7.22;2.42;;;21.20;34.00;;;;;;5091317;28;20052;-71
2023/05/19 11:10:24;;;;;;;4.90;1.92;;;21.30;33.80;;;;;;5125400;28;20081;-70
2023/05/19 11:12:51;;;;;;;8.55;2.55;;;21.30;34.40;;;;;;5074635;28;20134;-70
2023/05/19 11:15:16;;;;;;;6.38;2.35;;;21.30;34.30;;;;;;5074657;28;20062;-71
2023/05/19 11:17:47;;;;;;;4.78;2.40;;;21.30;33.80;;;;;;5125420;28;20476;-65
2023/05/19 11:20:25;;;;;;;5.78;2.08;;;21.20;33.20;;;;;;5092724;28;20143;-65
2023/05/19 11:23:00;;;;;;;5.25;1.70;;;21.30;34.40;;;;;;5125306;28;20125;-65
2023/05/19 11:25:50;;;;;;;5.95;2.10;;;21.30;34.30;;;;;;5125622;28;20048;-65
2023/05/19 11:28:24;;;;;;;7.70;2.13;;;21.30;34.70;;;;;;5125591;28;20392;-65
2023/05/19 11:30:52;;;;;;;5.38;1.80;;;21.30;34.80;;;;;;5091224;28;20514;-66
2023/05/19 11:33:19;;;;;;;5.85;1.95;;;21.30;34.90;;;;;;5125550;28;20066;-65
2023/05/19 11:35:50;;;;;;;7.18;2.33;;;21.30;34.30;;;;;;5125143;28;20062;-65
2023/05/19 11:38:20;;;;;;;4.78;1.95;;;21.30;33.80;;;;;;5125093;28;20040;-65
2023/05/19 11:40:48;;;;;;;5.70;2.10;;;21.30;34.10;;;;;;5125465;28;20051;-65
2023/05/19 11:43:15;;;;;;;6.22;2.15;;;21.40;34.30;;;;;;5091277;28;20441;-65
2023/05/19 11:45:41;;;;;;;7.00;2.22;;;21.30;34.10;;;;;;5125355;28;20165;-66
2023/05/19 11:48:14;;;;;;;4.63;2.10;;;21.40;34.20;;;;;;5125173;28;20495;-65
2023/05/19 11:50:42;;;;;;;6.80;2.13;;;21.40;33.60;;;;;;5124953;28;20052;-66
2023/05/19 11:53:15;;;;;;;5.75;2.10;;;21.40;34.60;;;;;;5125100;28;20536;-65
2023/05/19 11:55:43;;;;;;;5.87;2.20;;;21.40;34.50;;;;;;5125004;28;20146;-65
2023/05/19 11:58:09;;;;;;;7.60;1.98;;;21.30;34.40;;;;;;5125143;27;20076;-66
2023/05/19 12:00:39;;;;;;;5.35;2.00;;;21.30;34.10;;;;;;5095855;28;20075;-65
2023/05/19 12:03:06;;;;;;;5.90;1.90;;;21.30;33.50;;;;;;5128600;27;20044;-66
2023/05/19 12:05:35;;;;;;;7.75;2.05;;;21.20;33.50;;;;;;5128940;27;20122;-65
2023/05/19 12:08:01;;;;;;;4.70;1.90;;;21.10;34.00;;;;;;5128769;27;20040;-65
2023/05/19 12:10:29;;;;;;;4.88;2.17;;;21.10;34.70;;;;;;5128797;27;20105;-65
2023/05/19 12:12:56;;;;;;;9.15;2.90;;;21.10;34.80;;;;;;5128761;27;20047;-65
2023/05/19 12:15:23;;;;;;;8.48;2.03;;;21.10;34.70;;;;;;5077513;28;20052;-65
2023/05/19 12:17:57;;;;;;;6.00;2.20;;;21.20;34.50;;;;;;5128373;27;20210;-65
2023/05/19 12:20:24;;;;;;;6.57;2.10;;;21.10;34.10;;;;;;5128211;27;20490;-65
2023/05/19 12:22:50;;;;;;;7.82;2.25;;;21.10;34.20;;;;;;5128486;27;20674;-65
2023/05/19 12:25:17;;;;;;;8.40;2.05;;;21.00;34.40;;;;;;5128159;27;20087;-70
2023/05/19 12:27:43;;;;;;;6.18;2.03;;;21.00;34.80;;;;;;5128442;27;20047;-70
2023/05/19 12:30:11;;;;;;;6.78;2.08;;;21.00;35.10;;;;;;5127977;27;20048;-72
2023/05/19 12:32:37;;;;;;;5.68;2.30;;;21.00;35.00;;;;;;5128186;27;20126;-71
2023/05/19 12:35:05;;;;;;;6.07;2.55;;;21.00;35.20;;;;;;5128271;27;20494;-71
2023/05/19 12:37:32;;;;;;;6.13;2.13;;;21.00;35.00;;;;;;5076863;28;20173;-71
2023/05/19 12:39:58;;;;;;;7.70;2.40;;;20.90;34.70;;;;;;5128368;27;20062;-71
2023/05/19 12:42:31;;;;;;;8.05;2.72;;;20.90;34.30;;;;;;5127804;27;20036;-71
2023/05/19 12:45:01;;;;;;;5.82;1.90;;;20.80;35.00;;;;;;5128126;27;20040;-71
2023/05/19 12:47:34;;;;;;;7.57;2.20;;;20.80;34.90;;;;;;5127752;27;20495;-71
2023/05/19 12:50:04;;;;;;;7.75;2.17;;;20.80;35.20;;;;;;5127934;27;20529;-71
2023/05/19 12:52:34;;;;;;;5.03;2.33;;;20.80;35.10;;;;;;5127704;27;20170;-71